Stockholm, Maine
Current Conditions -  °F | °C
As of 8:54 PM on Saturday 25 Oct 2014 (Local Time) from KCAR Reporting Station
Overcast Overcast  
Wind Chill: 43°   Ceiling: 400
Heat Index: 43°   Visibility: 10mi
Dew Point: 40°   Wind: 3mph
Humidity: 89%   Direction: 100°E
Pressure: 29.51"   Gusts: NA
Location:  47.04°N, 68.14°W
Report Text: KCAR 260054Z AUTO 10003KT 10SM OVC004 06/04 A2951 RMK AO2 SLP999 T00610044 $
Loading
Personal Weather Stations






























Interactive Weather Map
Tropical Storm Tracking
New forecast layout! Learn more

10-Day Weather Forecast

Advertisements
Track Severe Weather on mobile